Time;durP1;ratioP1;P1;durP2;ratioP2;P2;SDS_P1;SDS_P2;PMS_P1;PMS_P2;Temp;Humidity;BMP_temperature;BMP_pressure;BME280_temperature;BME280_humidity;BME280_pressure;Samples;Min_cycle;Max_cycle;Signal;HPM_P1;HPM_P2
2023/03/01 00:01:47;;;;;;;27.33;15.35;;;9.20;99.90;;;;;;4915032;29;20048;-73
2023/03/01 00:04:15;;;;;;;25.38;14.93;;;9.20;99.90;;;;;;4891395;29;20052;-74
2023/03/01 00:06:45;;;;;;;27.38;15.77;;;9.30;99.90;;;;;;4894757;29;20060;-76
2023/03/01 00:09:16;;;;;;;27.80;16.20;;;9.20;99.90;;;;;;4903754;29;20116;-71
2023/03/01 00:11:43;;;;;;;;;;;9.20;99.90;;;;;;4914347;29;20068;-76
2023/03/01 00:14:11;;;;;;;24.55;14.77;;;9.10;99.90;;;;;;4894727;29;19930;-71
2023/03/01 00:16:41;;;;;;;30.77;16.90;;;9.10;99.90;;;;;;4910457;29;20046;-70
2023/03/01 00:19:16;;;;;;;34.45;16.58;;;9.20;99.90;;;;;;4913713;29;20374;-76
2023/03/01 00:21:44;;;;;;;26.13;15.68;;;9.10;99.90;;;;;;4892670;29;20044;-73
2023/03/01 00:24:11;;;;;;;27.30;15.77;;;9.10;99.90;;;;;;4896322;29;20143;-77
2023/03/01 00:26:40;;;;;;;30.88;14.73;;;9.30;99.90;;;;;;4913251;29;20504;-71
2023/03/01 00:29:13;;;;;;;;;;;9.20;99.90;;;;;;4882409;29;20390;-76
2023/03/01 00:31:40;;;;;;;32.08;15.98;;;9.00;99.90;;;;;;4895354;29;19927;-76
2023/03/01 00:34:07;;;;;;;25.40;14.50;;;9.10;99.90;;;;;;4911995;29;20436;-71
2023/03/01 00:36:36;;;;;;;25.15;16.30;;;9.00;99.90;;;;;;4897988;29;20079;-73
2023/03/01 00:39:10;;;;;;;28.23;16.45;;;9.00;99.90;;;;;;4914652;29;20063;-75
2023/03/01 00:41:38;;;;;;;31.70;15.93;;;9.10;99.90;;;;;;4898400;29;20063;-70
2023/03/01 00:44:05;;;;;;;28.70;16.40;;;9.00;99.90;;;;;;4897768;29;20059;-70
2023/03/01 00:46:33;;;;;;;25.83;14.70;;;9.00;99.90;;;;;;4914347;29;20408;-70
2023/03/01 00:49:02;;;;;;;27.92;16.10;;;8.90;99.90;;;;;;4902792;29;20056;-71
2023/03/01 00:51:32;;;;;;;26.45;16.13;;;8.70;99.90;;;;;;4894678;29;20390;-73
2023/03/01 00:54:09;;;;;;;27.33;15.50;;;8.70;99.90;;;;;;4896431;29;20412;-70
2023/03/01 00:56:37;;;;;;;27.40;15.70;;;8.70;99.90;;;;;;4898070;29;20051;-73
2023/03/01 00:59:05;;;;;;;25.75;16.02;;;8.70;99.90;;;;;;4882875;29;20699;-72
2023/03/01 01:01:32;;;;;;;23.90;15.10;;;8.80;99.90;;;;;;4899390;29;20052;-75
2023/03/01 01:04:03;;;;;;;25.55;16.30;;;8.80;99.90;;;;;;4897985;29;20036;-73
2023/03/01 01:06:35;;;;;;;;;;;8.90;99.90;;;;;;4868474;29;20076;-76
2023/03/01 01:09:04;;;;;;;27.73;15.18;;;8.80;99.90;;;;;;4885708;29;19923;-71
2023/03/01 01:11:32;;;;;;;30.73;15.65;;;8.80;99.90;;;;;;4900643;29;20052;-76
2023/03/01 01:14:00;;;;;;;24.95;14.82;;;9.00;99.90;;;;;;4900743;29;20075;-75
2023/03/01 01:16:28;;;;;;;28.30;14.68;;;8.90;99.90;;;;;;4900711;29;20048;-70
2023/03/01 01:18:57;;;;;;;24.77;14.82;;;9.00;99.90;;;;;;4910338;29;20044;-71
2023/03/01 01:21:25;;;;;;;25.90;15.50;;;9.00;99.90;;;;;;4889161;29;20049;-75
2023/03/01 01:23:52;;;;;;;23.10;14.35;;;9.00;99.90;;;;;;4900957;29;20365;-70
2023/03/01 01:26:21;;;;;;;24.98;14.95;;;9.00;99.90;;;;;;4889209;29;20060;-76
2023/03/01 01:28:49;;;;;;;22.95;14.43;;;9.00;99.90;;;;;;4917633;29;20497;-71
2023/03/01 01:31:17;;;;;;;26.02;14.68;;;9.00;99.90;;;;;;4914407;29;20040;-72
2023/03/01 01:33:45;;;;;;;24.73;14.85;;;9.00;99.90;;;;;;4899842;29;20102;-74
2023/03/01 01:36:12;;;;;;;27.63;15.20;;;9.00;99.90;;;;;;4898353;29;20143;-75
2023/03/01 01:38:43;;;;;;;25.80;15.57;;;9.10;99.90;;;;;;4885225;29;20055;-69
2023/03/01 01:41:11;;;;;;;24.48;15.02;;;9.10;99.90;;;;;;4897837;29;20057;-74
2023/03/01 01:43:44;;;;;;;31.55;15.07;;;8.90;99.90;;;;;;4897139;29;20062;-74
2023/03/01 01:46:40;;;;;;;22.92;14.02;;;8.80;99.90;;;;;;4900790;29;20109;-73
2023/03/01 01:49:16;;;;;;;23.35;14.55;;;8.80;99.90;;;;;;4890396;29;20057;-77
2023/03/01 01:51:47;;;;;;;23.30;14.35;;;8.90;99.90;;;;;;4893876;29;20576;-77
2023/03/01 01:54:27;;;;;;;27.55;14.73;;;8.80;99.90;;;;;;4910261;29;20037;-76
2023/03/01 01:57:03;;;;;;;29.08;14.95;;;8.80;99.90;;;;;;4890273;29;20045;-76
2023/03/01 01:59:32;;;;;;;23.50;14.45;;;8.60;99.90;;;;;;4888946;29;20459;-76
2023/03/01 02:02:03;;;;;;;27.10;15.07;;;8.70;99.90;;;;;;4900130;29;20044;-74
2023/03/01 02:04:32;;;;;;;23.30;14.98;;;8.80;99.90;;;;;;4900752;29;20405;-76
2023/03/01 02:07:07;;;;;;;25.30;14.77;;;8.60;99.90;;;;;;4899346;29;20457;-73
2023/03/01 02:09:35;;;;;;;26.42;14.82;;;8.70;99.90;;;;;;4885046;29;20060;-69
2023/03/01 02:12:04;;;;;;;24.70;14.73;;;8.60;99.90;;;;;;4916240;29;20123;-76
2023/03/01 02:14:32;;;;;;;23.67;14.63;;;8.70;99.90;;;;;;4899685;29;20404;-74
2023/03/01 02:16:59;;;;;;;20.88;14.15;;;8.60;99.90;;;;;;4899238;29;20377;-69
2023/03/01 02:19:53;;;;;;;24.15;13.77;;;8.60;99.90;;;;;;4891844;29;20436;-76
2023/03/01 02:22:31;;;;;;;24.52;15.07;;;8.60;99.90;;;;;;4899935;29;20055;-76
2023/03/01 02:25:19;;;;;;;21.92;14.68;;;8.70;99.90;;;;;;4916110;29;20040;-73
2023/03/01 02:27:49;;;;;;;24.02;14.50;;;8.70;99.90;;;;;;4897620;29;20052;-72
2023/03/01 02:30:19;;;;;;;24.83;14.27;;;8.60;99.90;;;;;;4900286;29;20055;-71
2023/03/01 02:32:47;;;;;;;23.42;14.43;;;8.60;99.90;;;;;;4914791;29;20048;-73
2023/03/01 02:35:17;;;;;;;19.67;12.48;;;8.60;99.90;;;;;;4899958;29;20063;-75
2023/03/01 02:37:46;;;;;;;24.80;14.63;;;8.40;99.90;;;;;;4916168;29;20071;-74
2023/03/01 02:40:18;;;;;;;25.95;14.18;;;8.40;99.90;;;;;;4916142;29;20449;-74
2023/03/01 02:42:58;;;;;;;27.08;14.23;;;8.50;99.90;;;;;;4915106;29;20759;-73
2023/03/01 02:45:26;;;;;;;28.00;15.05;;;8.60;99.90;;;;;;4883783;29;20040;-72
2023/03/01 02:47:55;;;;;;;26.10;15.48;;;8.40;99.90;;;;;;4916215;29;20096;-74
2023/03/01 02:50:28;;;;;;;28.08;16.00;;;8.30;99.90;;;;;;4898824;29;20052;-73
2023/03/01 02:53:18;;;;;;;26.63;14.13;;;8.40;99.90;;;;;;4915738;29;20054;-73
2023/03/01 02:55:46;;;;;;;26.38;14.15;;;8.50;99.90;;;;;;4899519;29;20052;-75
2023/03/01 02:58:13;;;;;;;23.77;14.95;;;8.50;99.90;;;;;;4911677;29;20052;-74
2023/03/01 03:00:46;;;;;;;22.42;13.73;;;8.40;99.90;;;;;;4913320;29;20520;-74
2023/03/01 03:03:16;;;;;;;25.73;14.07;;;8.50;99.90;;;;;;4898729;29;20056;-75
2023/03/01 03:05:44;;;;;;;26.38;14.80;;;8.50;99.90;;;;;;4899199;29;20404;-69
2023/03/01 03:08:11;;;;;;;25.45;14.52;;;8.40;99.90;;;;;;4883764;29;20396;-71
2023/03/01 03:10:45;;;;;;;25.23;14.70;;;8.30;99.90;;;;;;4886641;29;20740;-74
2023/03/01 03:13:16;;;;;;;23.35;14.15;;;8.40;99.90;;;;;;4897909;29;20048;-72
2023/03/01 03:15:44;;;;;;;23.60;13.75;;;8.50;99.90;;;;;;4888490;29;20047;-76
2023/03/01 03:18:15;;;;;;;26.38;13.95;;;8.20;99.90;;;;;;4912111;29;20048;-75
2023/03/01 03:20:43;;;;;;;22.65;14.65;;;8.30;99.90;;;;;;4904578;29;20040;-75
2023/03/01 03:23:11;;;;;;;25.00;12.95;;;8.40;99.90;;;;;;4892083;29;20135;-72
2023/03/01 03:25:38;;;;;;;24.90;13.65;;;8.30;99.90;;;;;;4895660;29;20070;-75
2023/03/01 03:28:09;;;;;;;24.13;12.85;;;8.30;99.90;;;;;;4901009;29;20044;-77
2023/03/01 03:30:39;;;;;;;28.10;14.15;;;8.20;99.90;;;;;;4915535;29;20091;-75
2023/03/01 03:33:08;;;;;;;23.77;12.20;;;8.30;99.90;;;;;;4898427;29;20696;-70
2023/03/01 03:35:42;;;;;;;19.52;12.80;;;8.40;99.90;;;;;;4883061;29;20463;-70
2023/03/01 03:38:15;;;;;;;19.58;11.75;;;8.20;99.90;;;;;;4915244;29;20381;-73
2023/03/01 03:40:51;;;;;;;23.00;13.13;;;8.30;99.90;;;;;;4915531;29;20040;-73
2023/03/01 03:43:27;;;;;;;23.05;13.43;;;8.20;99.90;;;;;;4912051;29;20055;-72
2023/03/01 03:45:56;;;;;;;21.27;12.68;;;8.40;99.90;;;;;;4898461;29;20058;-74
2023/03/01 03:48:25;;;;;;;22.38;12.13;;;8.40;99.90;;;;;;4882961;29;20394;-74
2023/03/01 03:50:55;;;;;;;17.55;11.57;;;8.40;99.90;;;;;;4911788;29;20107;-73
2023/03/01 03:53:24;;;;;;;24.77;13.13;;;8.10;99.90;;;;;;4898107;29;20070;-69
2023/03/01 03:55:53;;;;;;;22.00;12.10;;;8.10;99.90;;;;;;4898393;29;20047;-76
2023/03/01 03:58:22;;;;;;;20.58;12.73;;;8.10;99.90;;;;;;4882534;29;20048;-73
2023/03/01 04:00:53;;;;;;;21.25;11.73;;;8.20;99.90;;;;;;4898264;29;20102;-71
2023/03/01 04:03:21;;;;;;;18.45;12.25;;;8.30;99.90;;;;;;4914853;29;20040;-72
2023/03/01 04:05:50;;;;;;;20.25;12.63;;;8.10;99.90;;;;;;4893852;29;20540;-75
2023/03/01 04:08:22;;;;;;;20.10;12.15;;;8.10;99.90;;;;;;4904445;29;20052;-76
2023/03/01 04:10:52;;;;;;;19.15;12.02;;;8.20;99.90;;;;;;4898106;29;20055;-77
2023/03/01 04:13:22;;;;;;;17.55;11.23;;;8.20;99.90;;;;;;4898097;29;20051;-74
2023/03/01 04:15:51;;;;;;;19.05;12.32;;;8.30;99.90;;;;;;4898154;29;20066;-76
2023/03/01 04:18:21;;;;;;;20.98;12.50;;;8.20;99.90;;;;;;4914344;29;20632;-77
2023/03/01 04:20:48;;;;;;;18.75;12.07;;;8.30;99.90;;;;;;4892319;29;20504;-78
2023/03/01 04:23:20;;;;;;;16.90;11.20;;;8.10;99.90;;;;;;4898225;29;20044;-76
2023/03/01 04:25:58;;;;;;;22.15;11.75;;;8.00;99.90;;;;;;4894481;29;20048;-76
2023/03/01 04:28:26;;;;;;;20.17;10.93;;;8.10;99.90;;;;;;4885626;29;20055;-73
2023/03/01 04:30:57;;;;;;;21.35;11.70;;;8.00;99.90;;;;;;4884950;29;20124;-73
2023/03/01 04:33:25;;;;;;;15.93;11.68;;;8.10;99.90;;;;;;4898343;29;20046;-76
2023/03/01 04:35:52;;;;;;;18.98;11.48;;;8.10;99.90;;;;;;4898216;29;20522;-69
2023/03/01 04:38:21;;;;;;;17.48;10.80;;;8.00;99.90;;;;;;4918335;29;20048;-75
2023/03/01 04:40:48;;;;;;;18.58;11.50;;;8.10;99.90;;;;;;4901392;29;20054;-76
2023/03/01 04:43:16;;;;;;;22.45;11.75;;;8.20;99.90;;;;;;4918308;29;20055;-73
2023/03/01 04:45:43;;;;;;;16.60;11.13;;;8.10;99.90;;;;;;4901845;29;20056;-74
2023/03/01 04:48:11;;;;;;;19.85;11.45;;;8.10;99.90;;;;;;4917994;29;20064;-71
2023/03/01 04:50:38;;;;;;;20.42;12.02;;;8.00;99.90;;;;;;4917989;29;20044;-68
2023/03/01 04:53:41;;;;;;;17.58;11.73;;;8.00;99.90;;;;;;4911217;29;20128;-70
2023/03/01 04:56:09;;;;;;;17.05;10.88;;;8.10;99.90;;;;;;4901511;29;20631;-71
2023/03/01 04:58:36;;;;;;;17.45;10.88;;;8.00;99.90;;;;;;4916597;29;20150;-75
2023/03/01 05:01:14;;;;;;;18.83;11.13;;;8.00;99.90;;;;;;4918129;29;20373;-74
2023/03/01 05:03:48;;;;;;;17.17;11.80;;;7.90;99.90;;;;;;4901063;29;20048;-69
2023/03/01 05:06:16;;;;;;;17.95;10.75;;;8.00;99.90;;;;;;4901140;29;20044;-75
2023/03/01 05:08:44;;;;;;;20.38;11.80;;;7.90;99.90;;;;;;4917500;29;20052;-69
2023/03/01 05:11:12;;;;;;;18.55;11.10;;;8.10;99.90;;;;;;4901444;29;20122;-70
2023/03/01 05:13:39;;;;;;;16.40;11.10;;;8.20;99.90;;;;;;4897418;29;20113;-75
2023/03/01 05:16:11;;;;;;;21.08;12.00;;;8.00;99.90;;;;;;4893738;29;20536;-70
2023/03/01 05:18:40;;;;;;;22.42;11.55;;;8.20;99.90;;;;;;4916218;29;20098;-70
2023/03/01 05:21:13;;;;;;;15.25;10.55;;;8.30;99.90;;;;;;4896844;29;20272;-71
2023/03/01 05:23:40;;;;;;;18.58;11.07;;;8.40;99.90;;;;;;4894848;29;20051;-72
2023/03/01 05:26:08;;;;;;;18.48;11.73;;;8.30;99.90;;;;;;4911432;29;20044;-69
2023/03/01 05:28:58;;;;;;;16.85;11.25;;;8.30;99.90;;;;;;4899051;29;20044;-70
2023/03/01 05:31:27;;;;;;;20.73;10.75;;;8.40;99.90;;;;;;4913213;29;20104;-74
2023/03/01 05:33:54;;;;;;;16.23;10.60;;;8.30;99.90;;;;;;4917030;29;20038;-74
2023/03/01 05:36:21;;;;;;;19.65;10.18;;;8.10;99.90;;;;;;4916783;29;20051;-75
2023/03/01 05:38:48;;;;;;;17.45;10.77;;;8.00;99.90;;;;;;4898104;29;20416;-76
2023/03/01 05:41:16;;;;;;;17.63;10.93;;;8.00;99.90;;;;;;4917053;29;20516;-74
2023/03/01 05:43:44;;;;;;;18.48;10.82;;;8.00;99.90;;;;;;4914743;29;20052;-70
2023/03/01 05:46:14;;;;;;;19.55;10.73;;;8.10;99.90;;;;;;4895389;29;20044;-73
2023/03/01 05:48:42;;;;;;;16.73;11.02;;;8.10;99.90;;;;;;4911555;29;20068;-75
2023/03/01 05:51:10;;;;;;;17.30;11.23;;;8.10;99.90;;;;;;4882230;29;20048;-73
2023/03/01 05:53:37;;;;;;;18.17;10.70;;;8.20;99.90;;;;;;4905978;29;20036;-71
2023/03/01 05:56:05;;;;;;;18.30;11.48;;;8.20;99.90;;;;;;4897066;29;20040;-74
2023/03/01 05:58:33;;;;;;;19.02;11.32;;;8.10;99.90;;;;;;4878708;29;20075;-73
2023/03/01 06:01:00;;;;;;;19.60;11.65;;;8.00;99.90;;;;;;4911291;29;20548;-69
2023/03/01 06:03:27;;;;;;;18.83;11.90;;;8.10;99.90;;;;;;4914958;29;20051;-70
2023/03/01 06:05:58;;;;;;;69.13;40.22;;;8.20;99.90;;;;;;4900289;29;20036;-70
2023/03/01 06:08:27;;;;;;;24.25;16.83;;;8.30;99.90;;;;;;4912186;29;20055;-71
2023/03/01 06:10:54;;;;;;;19.42;10.88;;;8.20;99.90;;;;;;4896741;29;20064;-69
2023/03/01 06:13:23;;;;;;;20.40;9.95;;;8.00;99.90;;;;;;4899873;29;20044;-75
2023/03/01 06:15:53;;;;;;;13.68;9.90;;;8.10;99.90;;;;;;4910133;29;20399;-75
2023/03/01 06:18:21;;;;;;;17.20;10.63;;;8.10;99.90;;;;;;4894439;29;20048;-73
2023/03/01 06:20:55;;;;;;;14.73;10.65;;;8.20;99.90;;;;;;4894650;29;20643;-69
2023/03/01 06:23:24;;;;;;;15.13;10.68;;;8.40;99.90;;;;;;4897148;29;20051;-74
2023/03/01 06:25:51;;;;;;;19.80;10.85;;;8.30;99.90;;;;;;4911593;29;20048;-76
2023/03/01 06:28:18;;;;;;;17.48;10.30;;;8.30;99.90;;;;;;4914679;29;20040;-74
2023/03/01 06:30:46;;;;;;;15.90;11.65;;;8.20;99.90;;;;;;4915379;29;20114;-73
2023/03/01 06:33:13;;;;;;;34.38;19.75;;;8.30;99.90;;;;;;4916426;29;20509;-70
2023/03/01 06:35:40;;;;;;;187.52;98.75;;;8.30;99.90;;;;;;4898430;29;20425;-70
2023/03/01 06:38:09;;;;;;;25.20;18.65;;;8.50;99.90;;;;;;4898831;29;20044;-72
2023/03/01 06:40:36;;;;;;;21.02;12.82;;;8.40;99.90;;;;;;4911395;29;20052;-71
2023/03/01 06:43:10;;;;;;;19.15;12.18;;;8.10;99.90;;;;;;4898469;29;20036;-72
2023/03/01 06:45:39;;;;;;;22.17;12.32;;;8.10;99.90;;;;;;4898364;29;20052;-69
2023/03/01 06:48:07;;;;;;;19.27;12.85;;;8.20;99.90;;;;;;4914280;29;20402;-70
2023/03/01 06:50:35;;;;;;;19.27;12.00;;;8.20;99.90;;;;;;4898453;29;20645;-73
2023/03/01 06:53:03;;;;;;;22.83;13.40;;;8.30;99.90;;;;;;4915999;29;20100;-71
2023/03/01 06:55:33;;;;;;;19.27;12.38;;;8.30;99.90;;;;;;4893830;29;20067;-71
2023/03/01 06:58:02;;;;;;;25.08;13.88;;;8.30;99.90;;;;;;4891553;29;20716;-72
2023/03/01 07:00:31;;;;;;;67.43;33.63;;;8.20;99.90;;;;;;4896867;29;20110;-72
2023/03/01 07:03:01;;;;;;;;;;;8.30;99.90;;;;;;4897889;29;20051;-72
2023/03/01 07:05:29;;;;;;;27.17;14.50;;;8.20;99.90;;;;;;4912368;29;19930;-71
2023/03/01 07:08:01;;;;;;;20.23;14.05;;;8.30;99.90;;;;;;4909441;29;20123;-69
2023/03/01 07:10:32;;;;;;;19.40;12.73;;;8.40;99.90;;;;;;4913629;29;20059;-72
2023/03/01 07:13:06;;;;;;;22.25;13.05;;;8.40;99.90;;;;;;4883691;29;20378;-73
2023/03/01 07:15:34;;;;;;;19.13;11.90;;;8.30;99.90;;;;;;4895696;29;20048;-69
2023/03/01 07:18:04;;;;;;;18.00;11.73;;;8.40;99.90;;;;;;4878436;29;20040;-72
2023/03/01 07:20:32;;;;;;;17.10;11.80;;;8.30;99.90;;;;;;4877104;29;20131;-71
2023/03/01 07:23:00;;;;;;;16.77;11.18;;;8.30;99.90;;;;;;4888183;29;20075;-70
2023/03/01 07:25:28;;;;;;;16.92;11.15;;;8.30;99.90;;;;;;4891875;29;20060;-69
2023/03/01 07:28:00;;;;;;;19.60;12.00;;;8.10;99.90;;;;;;4893762;29;20052;-72
2023/03/01 07:30:36;;;;;;;18.90;11.32;;;8.10;99.90;;;;;;4896787;29;20043;-73
2023/03/01 07:33:04;;;;;;;21.67;13.60;;;8.20;99.90;;;;;;4880368;29;20091;-73
2023/03/01 07:35:33;;;;;;;20.33;11.98;;;8.50;99.90;;;;;;4911984;29;20048;-72
2023/03/01 07:38:00;;;;;;;21.38;12.55;;;8.70;99.90;;;;;;4911903;29;20040;-73
2023/03/01 07:40:27;;;;;;;22.77;13.18;;;8.70;99.90;;;;;;4914424;29;20045;-73
2023/03/01 07:42:56;;;;;;;20.90;13.27;;;8.80;99.90;;;;;;4912280;29;20044;-72
2023/03/01 07:45:27;;;;;;;22.75;13.52;;;8.80;99.90;;;;;;4898413;29;20048;-73
2023/03/01 07:48:03;;;;;;;18.88;12.63;;;8.80;99.90;;;;;;4893423;29;20135;-73
2023/03/01 07:50:31;;;;;;;20.85;12.93;;;9.00;99.90;;;;;;4882505;29;20060;-74
2023/03/01 07:53:03;;;;;;;19.13;12.35;;;8.80;99.90;;;;;;4907651;29;20048;-73
2023/03/01 07:55:33;;;;;;;19.08;11.85;;;9.00;99.90;;;;;;4896448;29;20063;-73
2023/03/01 07:58:01;;;;;;;22.27;13.25;;;9.00;99.90;;;;;;4910215;29;20047;-73
2023/03/01 08:00:28;;;;;;;18.85;12.15;;;9.00;99.90;;;;;;4912919;29;20378;-72
2023/03/01 08:02:59;;;;;;;20.63;12.52;;;9.10;99.90;;;;;;4897747;29;20044;-72
2023/03/01 08:05:27;;;;;;;18.63;12.20;;;8.90;99.90;;;;;;4898079;29;20044;-73
2023/03/01 08:07:54;;;;;;;21.00;12.25;;;8.80;99.90;;;;;;4909246;29;20040;-73
2023/03/01 08:10:22;;;;;;;20.60;13.98;;;9.00;99.90;;;;;;4908514;29;20036;-72
2023/03/01 08:12:52;;;;;;;19.80;13.45;;;8.80;99.90;;;;;;4878770;29;20201;-72
2023/03/01 08:15:25;;;;;;;20.10;13.13;;;8.80;99.90;;;;;;4892639;29;20047;-73
2023/03/01 08:17:58;;;;;;;22.35;13.35;;;8.70;99.90;;;;;;4894275;29;20044;-72
2023/03/01 08:20:30;;;;;;;19.85;13.23;;;8.70;99.90;;;;;;4889909;29;20103;-71
2023/03/01 08:22:58;;;;;;;19.10;12.57;;;8.70;99.90;;;;;;4880761;29;20596;-72
2023/03/01 08:25:26;;;;;;;21.05;12.38;;;8.80;99.90;;;;;;4871137;29;20062;-72
2023/03/01 08:27:53;;;;;;;17.92;11.93;;;8.70;99.90;;;;;;4906016;29;20053;-73
2023/03/01 08:30:23;;;;;;;15.48;11.43;;;8.80;99.90;;;;;;4889546;29;20063;-72
2023/03/01 08:32:51;;;;;;;18.92;12.55;;;8.90;99.90;;;;;;4887635;29;20052;-72
2023/03/01 08:35:20;;;;;;;18.65;12.52;;;8.90;99.90;;;;;;4910821;29;20044;-71
2023/03/01 08:37:48;;;;;;;18.15;11.57;;;8.90;99.90;;;;;;4893899;29;20048;-71
2023/03/01 08:40:22;;;;;;;18.08;12.10;;;8.80;99.90;;;;;;4881733;29;20056;-71
2023/03/01 08:42:54;;;;;;;17.00;11.40;;;8.80;99.90;;;;;;4906676;29;20096;-72
2023/03/01 08:45:24;;;;;;;21.95;11.90;;;9.00;99.90;;;;;;4896804;29;20119;-73
2023/03/01 08:47:57;;;;;;;17.88;11.07;;;9.20;99.90;;;;;;4894452;29;20043;-73
2023/03/01 08:50:35;;;;;;;15.30;11.73;;;9.40;99.90;;;;;;4897250;29;20063;-73
2023/03/01 08:53:08;;;;;;;16.83;12.07;;;9.20;99.90;;;;;;4910266;29;20048;-73
2023/03/01 08:55:55;;;;;;;15.80;11.10;;;9.30;99.90;;;;;;4892788;29;20062;-73
2023/03/01 08:58:28;;;;;;;15.63;11.20;;;9.40;99.90;;;;;;4907917;29;20079;-73
2023/03/01 09:01:00;;;;;;;21.10;11.07;;;9.60;99.90;;;;;;4909686;29;20045;-73
2023/03/01 09:03:30;;;;;;;16.73;11.50;;;9.80;99.90;;;;;;4894423;29;20567;-73
2023/03/01 09:06:03;;;;;;;15.07;10.80;;;9.70;99.90;;;;;;4879458;29;20579;-73
2023/03/01 09:08:33;;;;;;;17.15;11.45;;;9.70;99.90;;;;;;4895997;29;20051;-72
2023/03/01 09:11:05;;;;;;;17.73;11.90;;;9.60;99.90;;;;;;4909325;29;20061;-76
2023/03/01 09:13:35;;;;;;;17.63;11.40;;;9.50;99.90;;;;;;4893637;29;20041;-75
2023/03/01 09:16:06;;;;;;;18.90;11.85;;;9.70;99.90;;;;;;4892665;29;20401;-77
2023/03/01 09:18:35;;;;;;;16.80;12.25;;;9.60;99.90;;;;;;4893964;29;20048;-71
2023/03/01 09:21:07;;;;;;;18.65;11.88;;;9.30;99.90;;;;;;4892620;29;20068;-73
2023/03/01 09:23:42;;;;;;;18.20;12.50;;;9.40;99.90;;;;;;4915299;29;20456;-72
2023/03/01 09:26:21;;;;;;;20.27;12.23;;;9.50;99.90;;;;;;4886561;29;20143;-71
2023/03/01 09:28:50;;;;;;;18.40;12.43;;;9.50;99.90;;;;;;4896870;29;20053;-71
2023/03/01 09:31:22;;;;;;;19.70;12.13;;;9.60;99.90;;;;;;4907414;29;20111;-76
2023/03/01 09:33:52;;;;;;;20.38;11.98;;;9.60;99.90;;;;;;4897370;29;20500;-71
2023/03/01 09:36:25;;;;;;;22.58;12.75;;;9.70;99.90;;;;;;4883247;29;20441;-76
2023/03/01 09:38:57;;;;;;;19.65;11.77;;;9.80;99.90;;;;;;4894724;29;20131;-76
2023/03/01 09:42:04;;;;;;;19.20;12.52;;;9.80;99.90;;;;;;4898862;29;20055;-72
2023/03/01 09:44:49;;;;;;;20.33;12.23;;;9.90;99.90;;;;;;4898070;29;20075;-72
2023/03/01 09:47:25;;;;;;;17.95;11.88;;;10.10;99.90;;;;;;4916454;29;20048;-73
2023/03/01 09:50:16;;;;;;;19.40;11.95;;;10.20;99.90;;;;;;4899118;29;20048;-74
2023/03/01 09:53:00;;;;;;;18.45;11.63;;;10.20;99.90;;;;;;4886244;29;20428;-70
2023/03/01 09:56:02;;;;;;;16.77;11.50;;;10.20;99.90;;;;;;4893212;29;20048;-74
2023/03/01 09:58:40;;;;;;;18.42;12.15;;;10.10;99.90;;;;;;4895842;29;20536;-71
2023/03/01 10:01:34;;;;;;;18.38;11.55;;;9.80;99.90;;;;;;4896205;29;20159;-70
2023/03/01 10:04:43;;;;;;;13.70;10.77;;;9.90;99.90;;;;;;4899225;29;20205;-78
2023/03/01 10:07:11;;;;;;;18.67;12.98;;;10.10;99.90;;;;;;4898988;29;20052;-72
2023/03/01 10:09:41;;;;;;;19.00;12.05;;;10.10;99.90;;;;;;4900130;29;20059;-71
2023/03/01 10:12:12;;;;;;;17.60;11.60;;;10.40;99.90;;;;;;4899230;29;20044;-73
2023/03/01 10:14:58;;;;;;;;;;;10.70;99.90;;;;;;4899396;29;20066;-71
2023/03/01 10:18:07;;;;;;;18.70;11.63;;;10.70;99.90;;;;;;4882043;29;20112;-72
2023/03/01 10:20:54;;;;;;;16.67;12.05;;;10.70;99.90;;;;;;4884302;29;20039;-70
2023/03/01 10:23:27;;;;;;;17.67;11.93;;;10.70;99.90;;;;;;4914017;29;20048;-73
2023/03/01 10:26:11;;;;;;;23.17;12.88;;;10.50;99.90;;;;;;4897823;29;20302;-70
2023/03/01 10:29:04;;;;;;;17.67;12.82;;;10.60;99.90;;;;;;4914691;29;20071;-74
2023/03/01 10:31:38;;;;;;;17.85;12.82;;;10.70;99.90;;;;;;4898029;29;20043;-72
2023/03/01 10:34:15;;;;;;;16.83;11.98;;;10.50;99.90;;;;;;4898528;29;20044;-70
2023/03/01 10:36:57;;;;;;;18.52;12.65;;;10.70;99.90;;;;;;4913462;29;20048;-74
2023/03/01 10:39:26;;;;;;;20.55;12.95;;;10.80;99.90;;;;;;4908106;29;20048;-74
2023/03/01 10:42:09;;;;;;;19.87;12.37;;;10.80;99.90;;;;;;4893622;29;20135;-73
2023/03/01 10:44:42;;;;;;;19.08;12.52;;;10.80;99.90;;;;;;4892207;29;20052;-72
2023/03/01 10:47:23;;;;;;;19.67;13.18;;;10.90;99.90;;;;;;4913579;29;20048;-72
2023/03/01 10:49:57;;;;;;;19.85;12.45;;;10.90;99.90;;;;;;4895623;29;20147;-72
2023/03/01 10:52:34;;;;;;;19.38;12.25;;;11.00;99.90;;;;;;4897211;29;20040;-72
2023/03/01 10:55:23;;;;;;;23.10;12.90;;;10.90;99.90;;;;;;4912986;29;20353;-75
2023/03/01 10:58:05;;;;;;;20.05;12.35;;;10.80;99.90;;;;;;4896479;29;20048;-72
2023/03/01 11:01:00;;;;;;;22.60;13.73;;;10.60;99.90;;;;;;4911145;29;20413;-71
2023/03/01 11:03:33;;;;;;;21.55;12.95;;;10.30;99.90;;;;;;4896536;29;20046;-71
2023/03/01 11:06:21;;;;;;;21.73;13.40;;;10.40;99.90;;;;;;4912413;29;20055;-68
2023/03/01 11:08:50;;;;;;;23.23;13.85;;;10.50;99.90;;;;;;4895152;29;20128;-70
2023/03/01 11:11:40;;;;;;;18.58;13.40;;;10.60;99.90;;;;;;4897860;29;20457;-70
2023/03/01 11:14:23;;;;;;;20.65;13.07;;;10.40;99.90;;;;;;4912858;29;20044;-78
2023/03/01 11:17:31;;;;;;;21.98;14.45;;;10.30;99.90;;;;;;4896603;29;20073;-72
2023/03/01 11:20:32;;;;;;;22.73;14.13;;;10.10;99.90;;;;;;4931887;23;20051;-70
2023/03/01 11:23:09;;;;;;;21.77;13.73;;;10.10;99.90;;;;;;4951370;29;20036;-70
2023/03/01 11:25:40;;;;;;;21.52;13.88;;;10.10;99.90;;;;;;4951583;29;20449;-72
2023/03/01 11:28:15;;;;;;;21.98;13.95;;;10.10;99.90;;;;;;4935971;29;20042;-70
2023/03/01 11:31:11;;;;;;;24.55;14.55;;;10.20;99.90;;;;;;4934573;29;20530;-70
2023/03/01 11:33:57;;;;;;;21.15;13.90;;;10.30;99.90;;;;;;4963398;28;20063;-72
2023/03/01 11:36:58;;;;;;;21.92;14.48;;;10.30;99.90;;;;;;4965918;28;20062;-70
2023/03/01 11:39:38;;;;;;;22.20;14.85;;;10.50;99.90;;;;;;4939392;29;20066;-71
2023/03/01 11:42:20;;;;;;;18.35;13.52;;;10.40;99.90;;;;;;4934274;29;20055;-71
2023/03/01 11:45:02;;;;;;;21.55;13.10;;;10.40;99.90;;;;;;4939362;29;20047;-70
2023/03/01 11:47:54;;;;;;;20.48;13.73;;;10.50;99.90;;;;;;4933405;29;20050;-71
2023/03/01 11:50:43;;;;;;;21.85;14.02;;;10.50;99.90;;;;;;4935244;29;20513;-73
2023/03/01 11:53:32;;;;;;;21.77;14.80;;;10.40;99.90;;;;;;4935114;29;20501;-71
2023/03/01 11:56:38;;;;;;;20.60;15.15;;;10.50;99.90;;;;;;4934843;29;20047;-71
2023/03/01 11:59:45;;;;;;;24.77;15.57;;;10.60;99.90;;;;;;4936044;29;20467;-74
2023/03/01 12:02:40;;;;;;;23.85;14.75;;;10.60;99.90;;;;;;4935251;29;20053;-71
2023/03/01 12:05:39;;;;;;;23.17;14.93;;;10.50;99.90;;;;;;4934803;29;20065;-72
2023/03/01 12:08:17;;;;;;;;;;;10.60;99.90;;;;;;4911627;29;20052;-72
2023/03/01 12:10:45;;;;;;;23.30;14.43;;;10.60;99.90;;;;;;4947739;29;19923;-71
2023/03/01 12:13:47;;;;;;;23.35;14.93;;;10.60;99.90;;;;;;4934806;29;20090;-73
2023/03/01 12:16:28;;;;;;;22.48;14.73;;;10.50;99.90;;;;;;4934479;29;20051;-73
2023/03/01 12:19:31;;;;;;;22.20;15.43;;;10.40;99.90;;;;;;4935260;29;20051;-72
2023/03/01 12:22:30;;;;;;;28.85;16.90;;;10.50;99.90;;;;;;4950903;29;20439;-72
2023/03/01 12:25:01;;;;;;;26.80;14.90;;;10.60;99.90;;;;;;4935296;29;20047;-74
2023/03/01 12:28:17;;;;;;;23.70;14.50;;;10.60;99.90;;;;;;4948073;29;20035;-72
2023/03/01 12:31:03;;;;;;;21.27;14.70;;;10.30;99.90;;;;;;4946634;29;20079;-73
2023/03/01 12:33:58;;;;;;;25.13;15.02;;;10.40;99.90;;;;;;4933878;29;20062;-71
2023/03/01 12:36:53;;;;;;;24.05;14.63;;;10.50;99.90;;;;;;4933948;29;20065;-71
2023/03/01 12:39:56;;;;;;;28.58;17.38;;;10.70;99.90;;;;;;4934075;29;20046;-70
2023/03/01 12:43:58;;;;;;;25.98;15.90;;;10.70;99.90;;;;;;4938683;29;20035;-71
2023/03/01 12:46:37;;;;;;;23.83;14.77;;;10.80;99.90;;;;;;4865639;29;20183;-71
2023/03/01 12:52:37;;;;;;;24.75;15.95;;;10.60;99.90;;;;;;4941146;29;20062;-74
2023/03/01 12:55:35;;;;;;;24.63;16.17;;;10.60;99.90;;;;;;4937863;29;20082;-70
2023/03/01 12:58:42;;;;;;;24.30;15.75;;;10.60;99.90;;;;;;4938229;29;20396;-70
2023/03/01 13:01:28;;;;;;;28.05;16.60;;;10.60;99.90;;;;;;4926804;29;20043;-70
2023/03/01 13:04:26;;;;;;;24.85;16.38;;;10.60;99.90;;;;;;4939204;29;20407;-70
2023/03/01 13:07:15;;;;;;;27.55;17.50;;;10.60;99.90;;;;;;4932529;29;20381;-70
2023/03/01 13:10:16;;;;;;;30.88;18.45;;;10.40;99.90;;;;;;4934705;29;20106;-72
2023/03/01 13:12:55;;;;;;;25.63;17.30;;;10.40;99.90;;;;;;4935079;29;20059;-71
2023/03/01 13:15:32;;;;;;;27.77;17.00;;;10.50;99.90;;;;;;4937963;29;20043;-70
2023/03/01 13:18:05;;;;;;;24.13;15.77;;;10.50;99.90;;;;;;4934455;29;20059;-71